首页
METAR-TAF:

METAR-TAF

机场 :

吉隆坡, 马来西亚

吉隆坡国际机场

纬度: 02-44N, 经度: 101-42E, 海拔: 21米

当前天气观测

该预报发布于49分钟前的02:30 UTC
静风
温度 28°C
湿度 79%
气压 1009 hPa
能见度10公里或以上
少量云层高于2000英尺
散云层高于14000英尺
多云层高于28000英尺

METAR: WMKK 200230Z 00000KT 9999 FEW020 SCT140 BKN280 28/24 Q1009 NOSIG

时间: 11:19 (03:19 UTC)

预报

该预报发布于4小时和19分钟前的23:00 UTC
预报有效从20日的 00点(UTC)到 21日的 06点(UTC)
风速5节,风向北转东北
能见度10公里或以上
少量云层高于1700英尺, 积雨云.
散云层高于14000英尺
多云层高于28000英尺
短暂存在
从 20日的 07点(UTC)到 20日的 11点(UTC)
能見度: 3000
少量云层高于1500英尺, 积雨云.
散云层高于1800英尺
雷暴, 雨
几率 30% :
短暂存在
从 20日的 17点(UTC)到 20日的 21点(UTC)
能見度: 4000
少量云层高于1500英尺, 积雨云.
散云层高于1800英尺
雷暴, 雨

TAF: WMKK 192300Z 2000/2106 03005KT 9999 FEW017CB SCT140 BKN280 TEMPO 2007/2011 3000 TSRA FEW015CB SCT018 PROB30 TEMPO 2017/2021 4000 TSRA FEW015CB SCT018

超过4000个机场的气象观测和天气预报(METAR&TAF报告)。

可查询的气象台以黄色和红色小点在地图上表示。

将鼠标移到小点上方,可查看气象台名称。

然后点击查看天气观测和预报。

如需切换地图:点击带黑十字的绿色按钮放大地图;点击带横线的绿色按钮缩小地图;或者点击绿色箭头查看邻近地区的地图。


METAR-TAF: